Time;durP1;ratioP1;P1;durP2;ratioP2;P2;SDS_P1;SDS_P2;PMS_P1;PMS_P2;Temp;Humidity;BMP_temperature;BMP_pressure;BME280_temperature;BME280_humidity;BME280_pressure;Samples;Min_cycle;Max_cycle;Signal;HPM_P1;HPM_P2
2022/08/05 00:01:32;;;;;;;8.52;3.75;;;;;;;21.33;85.13;101372.72;5037878;28;20395;-54
2022/08/05 00:04:16;;;;;;;10.05;3.90;;;;;;;21.25;86.01;101358.53;5056571;28;20036;-53
2022/08/05 00:06:44;;;;;;;10.00;3.70;;;;;;;21.23;86.25;101355.28;5055359;28;20040;-55
2022/08/05 00:09:13;;;;;;;8.15;3.47;;;;;;;21.08;87.00;101344.72;5073333;28;20037;-52
2022/08/05 00:11:42;;;;;;;8.25;3.65;;;;;;;20.91;88.73;101341.94;5054907;28;20056;-50
2022/08/05 00:14:15;;;;;;;9.90;4.30;;;;;;;20.90;89.13;101354.16;5073026;28;20037;-57
2022/08/05 00:16:46;;;;;;;10.23;3.72;;;;;;;20.87;89.53;101363.13;5073054;28;20111;-55
2022/08/05 00:19:23;;;;;;;11.75;3.60;;;;;;;20.95;89.48;101370.59;5072928;28;20036;-56
2022/08/05 00:22:01;;;;;;;5.55;3.38;;;;;;;21.12;88.99;101367.88;5070525;28;20037;-57
2022/08/05 00:24:28;;;;;;;8.88;3.63;;;;;;;21.20;88.23;101361.50;5074831;28;20045;-58
2022/08/05 00:26:58;;;;;;;9.13;3.88;;;;;;;21.19;87.92;101359.88;5076093;28;20492;-58
2022/08/05 00:29:27;;;;;;;8.20;3.47;;;;;;;21.12;88.29;101362.31;5058621;28;20391;-58
2022/08/05 00:32:05;;;;;;;10.32;4.00;;;;;;;21.05;88.90;101362.00;5074835;28;20090;-54
2022/08/05 00:34:43;;;;;;;10.68;3.90;;;;;;;21.06;89.19;101375.50;5076335;28;20044;-58
2022/08/05 00:37:30;;;;;;;8.30;3.80;;;;;;;21.13;89.21;101365.91;5075874;28;20493;-56
2022/08/05 00:40:20;;;;;;;8.38;4.00;;;;;;;21.11;88.56;101362.63;5073190;28;20037;-56
2022/08/05 00:43:00;;;;;;;8.55;3.17;;;;;;;21.13;88.68;101355.63;5059900;28;20044;-55
2022/08/05 00:45:29;;;;;;;7.95;3.83;;;;;;;21.02;88.57;101351.53;5057219;28;20052;-56
2022/08/05 00:48:18;;;;;;;6.55;3.38;;;;;;;20.91;89.89;101364.09;5075907;28;20056;-55
2022/08/05 00:50:58;;;;;;;9.80;3.92;;;;;;;20.97;90.11;101368.31;5042036;28;20071;-56
2022/08/05 00:53:25;;;;;;;10.45;3.90;;;;;;;21.01;90.00;101363.78;5075992;28;20150;-53
2022/08/05 00:56:15;;;;;;;10.15;4.00;;;;;;;21.03;89.66;101364.28;5075627;28;20041;-56
2022/08/05 00:58:49;;;;;;;7.80;3.60;;;;;;;21.04;89.71;101363.13;5076182;28;20380;-53
2022/08/05 01:01:20;;;;;;;11.27;3.92;;;;;;;20.95;89.55;101368.66;5056567;28;20038;-55
2022/08/05 01:04:07;;;;;;;9.68;3.38;;;;;;;20.69;90.87;101374.19;5075248;28;20055;-54
2022/08/05 01:06:40;;;;;;;8.70;3.60;;;;;;;20.55;92.10;101373.47;5075743;28;20032;-54
2022/08/05 01:09:13;;;;;;;9.10;4.07;;;;;;;20.58;92.84;101364.53;5075098;28;20051;-56
2022/08/05 01:11:43;;;;;;;9.13;3.45;;;;;;;20.64;91.52;101366.03;5073800;28;20036;-55
2022/08/05 01:14:17;;;;;;;9.95;3.60;;;;;;;20.67;91.57;101361.78;5037904;28;20045;-52
2022/08/05 01:17:19;;;;;;;10.90;3.42;;;;;;;20.71;90.55;101374.69;5073017;28;20032;-55
2022/08/05 01:19:52;;;;;;;6.63;3.28;;;;;;;20.65;91.05;101378.72;5058287;28;20565;-53
2022/08/05 01:22:38;;;;;;;8.23;3.42;;;;;;;20.70;90.62;101383.28;5069545;28;20952;-55
2022/08/05 01:25:33;;;;;;;10.20;3.50;;;;;;;20.65;90.69;101395.34;5073686;28;20052;-54
2022/08/05 01:28:20;;;;;;;9.88;3.45;;;;;;;20.61;90.49;101399.88;5074943;28;20060;-53
2022/08/05 01:30:58;;;;;;;10.38;3.28;;;;;;;20.58;90.32;101417.16;5075446;28;20041;-57
2022/08/05 01:33:34;;;;;;;8.82;3.03;;;;;;;20.59;90.64;101419.59;5055548;28;20053;-57
2022/08/05 01:36:08;;;;;;;10.05;3.13;;;;;;;20.65;90.22;101411.94;5036544;28;20056;-54
2022/08/05 01:38:45;;;;;;;10.00;3.10;;;;;;;20.66;89.94;101413.59;5057394;28;20048;-55
2022/08/05 01:41:19;;;;;;;10.15;3.20;;;;;;;20.64;90.15;101413.09;5057463;28;20047;-55
2022/08/05 01:43:49;;;;;;;11.43;3.25;;;;;;;20.60;90.20;101415.69;5056716;28;20039;-53
2022/08/05 01:46:19;;;;;;;10.60;3.67;;;;;;;20.54;90.10;101410.56;5056577;28;20482;-57
2022/08/05 01:49:09;;;;;;;8.32;3.10;;;;;;;20.48;90.61;101409.91;5046872;28;20044;-53
2022/08/05 01:51:57;;;;;;;11.02;3.67;;;;;;;20.58;90.28;101422.69;5045740;28;20068;-57
2022/08/05 01:54:35;;;;;;;11.93;3.40;;;;;;;20.65;89.63;101423.03;5073737;28;20581;-54
2022/08/05 01:57:15;;;;;;;8.23;3.45;;;;;;;20.67;89.11;101423.53;5056882;28;20144;-56
2022/08/05 02:00:06;;;;;;;10.10;3.33;;;;;;;20.73;88.82;101436.06;5059522;28;20033;-55
2022/08/05 02:02:48;;;;;;;9.02;3.45;;;;;;;20.76;88.24;101440.97;5056581;28;20048;-53
2022/08/05 02:05:29;;;;;;;10.18;3.35;;;;;;;20.77;87.55;101441.78;5036752;28;20442;-53
2022/08/05 02:08:00;;;;;;;10.80;3.42;;;;;;;20.76;88.22;101429.91;5069929;28;20158;-54
2022/08/05 02:10:36;;;;;;;11.10;2.97;;;;;;;20.54;89.13;101416.13;5056676;28;20517;-53
2022/08/05 02:13:26;;;;;;;9.82;3.03;;;;;;;20.27;90.07;101406.91;5055600;28;20040;-55
2022/08/05 02:16:06;;;;;;;9.80;3.70;;;;;;;20.11;91.85;101400.19;5044457;28;20043;-55
2022/08/05 02:19:07;;;;;;;8.75;3.40;;;;;;;20.02;92.95;101383.53;5074687;28;20555;-57
2022/08/05 02:21:41;;;;;;;10.07;3.35;;;;;;;19.97;93.50;101380.91;5074267;28;20491;-54
2022/08/05 02:24:18;;;;;;;6.95;3.05;;;;;;;19.97;94.12;101392.78;5055733;28;20457;-53
2022/08/05 02:26:55;;;;;;;10.88;3.38;;;;;;;20.07;92.94;101396.41;5073967;28;20131;-52
2022/08/05 02:29:24;;;;;;;12.50;3.95;;;;;;;20.12;92.72;101404.56;5074290;28;20123;-54
2022/08/05 02:32:14;;;;;;;8.07;3.08;;;;;;;20.07;93.33;101396.41;5074108;28;20044;-58
2022/08/05 02:34:51;;;;;;;9.05;3.20;;;;;;;20.07;92.88;101385.34;5056875;28;20110;-58
2022/08/05 02:37:22;;;;;;;11.02;3.20;;;;;;;20.14;92.65;101399.53;5056346;28;20064;-57
2022/08/05 02:39:51;;;;;;;5.28;2.80;;;;;;;20.19;92.84;101397.44;5056411;28;20036;-55
2022/08/05 02:42:20;;;;;;;9.55;3.40;;;;;;;20.17;92.12;101409.97;5055926;28;20384;-56
2022/08/05 02:44:54;;;;;;;9.48;3.55;;;;;;;20.06;92.31;101400.31;5056404;28;20040;-56
2022/08/05 02:47:22;;;;;;;10.35;3.38;;;;;;;20.08;92.40;101403.56;5055370;28;20052;-54
2022/08/05 02:50:04;;;;;;;11.55;3.30;;;;;;;19.98;92.22;101415.72;5057499;28;20052;-55
2022/08/05 02:52:34;;;;;;;9.93;3.70;;;;;;;19.97;92.79;101420.44;5074144;28;20074;-54
2022/08/05 02:55:02;;;;;;;11.63;3.58;;;;;;;19.94;92.90;101426.63;5053855;28;20039;-54
2022/08/05 02:57:34;;;;;;;11.55;3.90;;;;;;;20.02;92.48;101429.75;5056466;28;20067;-55
2022/08/05 03:00:21;;;;;;;7.45;3.10;;;;;;;20.12;92.17;101426.72;5059213;28;20032;-54
2022/08/05 03:02:52;;;;;;;8.80;3.20;;;;;;;20.12;91.61;101416.44;5073297;28;20040;-56
2022/08/05 03:05:20;;;;;;;7.93;3.20;;;;;;;20.07;91.59;101404.72;5072526;28;20054;-56
2022/08/05 03:08:09;;;;;;;10.02;3.88;;;;;;;19.99;92.13;101400.78;5068316;28;20052;-55
2022/08/05 03:10:40;;;;;;;12.50;3.92;;;;;;;19.88;92.28;101389.16;5055974;28;20114;-57
2022/08/05 03:13:27;;;;;;;11.68;3.70;;;;;;;19.85;92.99;101372.41;5073297;28;20037;-54
2022/08/05 03:16:15;;;;;;;9.95;3.83;;;;;;;19.74;93.92;101355.25;5071659;28;20037;-53
2022/08/05 03:18:46;;;;;;;8.77;3.53;;;;;;;19.68;94.21;101367.59;5073081;28;20123;-54
2022/08/05 03:21:15;;;;;;;12.52;3.95;;;;;;;19.67;94.75;101369.47;5073080;28;20040;-53
2022/08/05 03:23:43;;;;;;;11.27;3.50;;;;;;;19.60;95.17;101377.41;5073009;28;20406;-56
2022/08/05 03:26:12;;;;;;;7.05;3.03;;;;;;;19.71;94.72;101384.34;5070178;28;20467;-54
2022/08/05 03:28:59;;;;;;;14.68;4.10;;;;;;;19.85;93.91;101395.31;5069574;28;20036;-56
2022/08/05 03:31:27;;;;;;;8.95;3.88;;;;;;;19.94;92.88;101404.50;5055738;28;20119;-57
2022/08/05 03:34:15;;;;;;;8.48;3.78;;;;;;;20.02;92.11;101399.31;5057921;28;20040;-56
2022/08/05 03:36:43;;;;;;;11.25;3.78;;;;;;;20.03;92.18;101398.19;5054331;28;20037;-54
2022/08/05 03:39:10;;;;;;;12.15;3.97;;;;;;;20.04;91.94;101408.13;5038274;28;20044;-57
2022/08/05 03:41:46;;;;;;;;;;;;;;;20.01;91.52;101409.53;5073459;28;20036;-57
2022/08/05 03:44:19;;;;;;;9.45;4.00;;;;;;;20.01;91.46;101409.53;5072345;28;19926;-55
2022/08/05 03:46:46;;;;;;;10.00;3.92;;;;;;;19.95;91.46;101395.06;5072515;28;20033;-55
2022/08/05 03:49:15;;;;;;;10.77;3.53;;;;;;;19.96;92.03;101416.06;5071545;28;20045;-54
2022/08/05 03:51:57;;;;;;;11.40;4.22;;;;;;;19.94;91.74;101421.09;5073619;28;20076;-57
2022/08/05 03:55:01;;;;;;;13.05;3.83;;;;;;;19.96;91.68;101416.06;5072825;28;20438;-53
2022/08/05 03:57:51;;;;;;;12.15;4.00;;;;;;;20.00;91.36;101410.69;5057124;28;20048;-54
2022/08/05 04:00:25;;;;;;;10.27;4.28;;;;;;;19.98;91.11;101411.00;5058710;28;20090;-55
2022/08/05 04:02:55;;;;;;;7.90;3.80;;;;;;;19.99;91.15;101407.13;5058399;28;20040;-57
2022/08/05 04:05:31;;;;;;;11.80;3.85;;;;;;;20.03;90.89;101400.94;5063889;28;20033;-54
2022/08/05 04:08:06;;;;;;;12.38;4.15;;;;;;;19.98;90.49;101388.88;5054981;28;20576;-55
2022/08/05 04:10:55;;;;;;;10.52;3.88;;;;;;;19.89;90.69;101381.66;5067975;28;20064;-52
2022/08/05 04:13:24;;;;;;;9.35;3.30;;;;;;;19.81;91.36;101383.25;5075682;28;20048;-56
2022/08/05 04:16:12;;;;;;;11.95;4.10;;;;;;;19.74;92.02;101382.88;5065797;28;20051;-55
2022/08/05 04:18:41;;;;;;;9.68;3.92;;;;;;;19.72;92.99;101397.06;5058235;28;20045;-56
2022/08/05 04:21:13;;;;;;;11.20;4.40;;;;;;;19.74;92.50;101386.47;5061014;28;20621;-56
2022/08/05 04:24:03;;;;;;;10.82;4.00;;;;;;;19.77;92.01;101393.31;5062435;28;20045;-55
2022/08/05 04:26:35;;;;;;;10.55;3.80;;;;;;;19.79;91.86;101400.19;5075647;28;20060;-57
2022/08/05 04:29:03;;;;;;;11.27;3.65;;;;;;;19.85;91.38;101405.59;5075491;28;20522;-58
2022/08/05 04:31:34;;;;;;;11.88;4.07;;;;;;;19.87;90.83;101417.16;5077807;28;20048;-54
2022/08/05 04:34:06;;;;;;;10.02;3.80;;;;;;;19.87;90.64;101419.91;5077035;28;20530;-62
2022/08/05 04:36:54;;;;;;;10.98;3.83;;;;;;;19.84;90.74;101415.81;5076319;28;20527;-57
2022/08/05 04:39:21;;;;;;;9.70;3.83;;;;;;;19.77;91.13;101416.28;5074870;28;20501;-57
2022/08/05 04:41:49;;;;;;;10.02;3.72;;;;;;;19.79;91.38;101419.53;5075973;28;20071;-56
2022/08/05 04:44:18;;;;;;;9.85;3.80;;;;;;;19.79;91.76;101418.69;5075661;28;20040;-57
2022/08/05 04:47:00;;;;;;;12.45;3.95;;;;;;;19.69;92.34;101428.06;5043148;28;20064;-57
2022/08/05 04:49:38;;;;;;;9.70;3.88;;;;;;;19.65;92.29;101437.28;5075018;28;20045;-59
2022/08/05 04:52:25;;;;;;;9.85;3.90;;;;;;;19.66;92.82;101425.91;5038546;28;20103;-56
2022/08/05 04:54:54;;;;;;;10.65;3.65;;;;;;;19.68;92.39;101420.94;5049134;28;20062;-54
2022/08/05 04:57:25;;;;;;;8.85;3.67;;;;;;;19.65;92.90;101413.25;5075335;28;20923;-58
2022/08/05 04:59:56;;;;;;;12.73;4.20;;;;;;;19.71;92.65;101422.25;5076007;28;20051;-57
2022/08/05 05:02:25;;;;;;;10.55;3.70;;;;;;;19.74;92.21;101427.13;5057604;28;20083;-57
2022/08/05 05:05:08;;;;;;;12.43;4.07;;;;;;;19.68;92.65;101422.88;5059968;28;20072;-59
2022/08/05 05:08:05;;;;;;;8.20;3.42;;;;;;;19.61;93.43;101436.28;5047222;28;20089;-58
2022/08/05 05:10:42;;;;;;;8.13;3.60;;;;;;;19.64;93.37;101435.66;5073082;28;20044;-56
2022/08/05 05:13:22;;;;;;;10.52;4.20;;;;;;;19.67;93.52;101421.19;5070182;28;20048;-58
2022/08/05 05:15:50;;;;;;;11.88;4.00;;;;;;;19.69;93.57;101422.53;5074691;28;20040;-54
2022/08/05 05:18:24;;;;;;;10.35;3.67;;;;;;;19.65;94.07;101416.00;5075067;28;20042;-53
2022/08/05 05:20:59;;;;;;;9.93;3.50;;;;;;;19.69;93.88;101419.78;5074219;28;20041;-53
2022/08/05 05:23:27;;;;;;;12.18;3.47;;;;;;;19.66;92.98;101411.28;5057455;28;20062;-53
2022/08/05 05:26:15;;;;;;;12.57;4.30;;;;;;;19.44;95.07;101423.97;5074721;28;20056;-54
2022/08/05 05:28:42;;;;;;;11.20;3.63;;;;;;;19.45;95.24;101425.59;5074791;28;20037;-55
2022/08/05 05:31:12;;;;;;;9.93;3.60;;;;;;;19.45;95.16;101430.31;5074347;28;20064;-54
2022/08/05 05:33:39;;;;;;;9.15;3.75;;;;;;;19.46;95.74;101432.78;5075329;28;20044;-56
2022/08/05 05:36:27;;;;;;;10.38;3.47;;;;;;;19.52;95.21;101439.78;5074706;28;20035;-56
2022/08/05 05:38:56;;;;;;;10.25;3.60;;;;;;;19.61;94.54;101445.41;5074887;28;20040;-57
2022/08/05 05:41:25;;;;;;;11.35;3.40;;;;;;;19.57;94.06;101442.44;5072327;28;20451;-53
2022/08/05 05:44:07;;;;;;;11.00;3.58;;;;;;;19.52;94.88;101448.09;5056623;28;20044;-53
2022/08/05 05:46:55;;;;;;;5.85;3.00;;;;;;;19.47;94.91;101450.97;5074660;28;20040;-54
2022/08/05 05:49:25;;;;;;;7.82;3.25;;;;;;;19.42;95.15;101448.34;5073955;28;20479;-54
2022/08/05 05:51:53;;;;;;;9.15;3.20;;;;;;;19.42;95.44;101445.56;5055775;28;20487;-51
2022/08/05 05:54:21;;;;;;;9.50;3.38;;;;;;;19.40;95.71;101455.31;5074344;28;20479;-50
2022/08/05 05:57:09;;;;;;;11.30;3.50;;;;;;;19.45;95.91;101453.22;5074593;28;20036;-55
2022/08/05 05:59:40;;;;;;;11.98;3.42;;;;;;;19.48;95.40;101452.63;5074335;28;20041;-56
2022/08/05 06:02:09;;;;;;;9.27;3.58;;;;;;;19.51;94.91;101465.00;5073307;28;20029;-55
2022/08/05 06:04:37;;;;;;;8.38;3.30;;;;;;;19.55;94.84;101468.75;4370522;28;9999994;-56
2022/08/05 06:07:04;;;;;;;12.30;4.13;;;;;;;19.52;95.29;101459.16;5053150;28;20043;-53
2022/08/05 06:09:32;;;;;;;12.63;3.83;;;;;;;19.47;95.82;101464.78;5070617;28;20149;-55
2022/08/05 06:12:20;;;;;;;12.13;4.18;;;;;;;19.46;95.78;101467.88;5070218;28;20040;-57
2022/08/05 06:14:47;;;;;;;12.43;3.78;;;;;;;19.53;95.64;101463.56;5071086;28;20033;-55
2022/08/05 06:17:18;;;;;;;12.57;4.18;;;;;;;19.55;95.72;101472.38;5070407;28;20044;-53
2022/08/05 06:19:51;;;;;;;9.07;3.80;;;;;;;19.45;96.01;101474.53;5069543;28;20072;-54
2022/08/05 06:22:28;;;;;;;13.43;3.60;;;;;;;19.37;96.38;101478.84;5070143;28;20040;-55
2022/08/05 06:24:56;;;;;;;10.70;4.03;;;;;;;19.26;96.58;101477.44;5052946;28;20856;-52
2022/08/05 06:27:25;;;;;;;10.55;3.80;;;;;;;19.23;97.34;101475.31;5054472;28;20482;-56
2022/08/05 06:30:14;;;;;;;10.77;3.65;;;;;;;19.19;97.92;101482.56;5059629;28;20514;-56
2022/08/05 06:32:47;;;;;;;14.68;4.43;;;;;;;19.26;96.94;101478.25;5077580;28;20514;-56
2022/08/05 06:35:17;;;;;;;12.07;3.97;;;;;;;19.24;96.84;101486.06;5068929;28;20040;-57
2022/08/05 06:38:05;;;;;;;12.25;4.05;;;;;;;19.22;97.34;101477.28;5051607;28;20044;-56
2022/08/05 06:40:39;;;;;;;14.18;4.00;;;;;;;19.27;96.47;101481.88;5052722;28;20524;-55
2022/08/05 06:43:12;;;;;;;9.43;3.95;;;;;;;19.33;96.77;101483.38;5056456;28;20402;-55
2022/08/05 06:45:59;;;;;;;11.75;3.90;;;;;;;19.34;96.46;101480.31;5057966;28;20040;-54
2022/08/05 06:48:34;;;;;;;14.35;4.32;;;;;;;19.32;96.50;101484.50;5056205;28;20120;-52
2022/08/05 06:51:22;;;;;;;13.75;3.90;;;;;;;19.38;96.40;101483.25;5073901;28;20033;-52
2022/08/05 06:53:57;;;;;;;10.45;3.80;;;;;;;19.45;95.34;101493.88;5056834;28;20036;-52
2022/08/05 06:56:25;;;;;;;10.68;3.65;;;;;;;19.37;95.50;101498.19;5055267;28;20102;-55
2022/08/05 06:58:54;;;;;;;9.32;3.85;;;;;;;19.32;95.57;101492.78;5073451;28;20049;-55
2022/08/05 07:01:22;;;;;;;10.93;4.00;;;;;;;19.32;95.66;101503.84;5056031;28;20398;-54
2022/08/05 07:04:01;;;;;;;18.25;4.32;;;;;;;19.34;95.94;101504.34;5073441;28;20072;-52
2022/08/05 07:06:29;;;;;;;11.27;3.47;;;;;;;19.42;95.76;101513.84;5072736;28;20036;-56
2022/08/05 07:08:59;;;;;;;10.93;3.67;;;;;;;19.50;95.32;101516.69;5055599;28;20082;-54
2022/08/05 07:11:34;;;;;;;13.80;3.80;;;;;;;19.52;95.11;101513.63;5072763;28;20036;-52
2022/08/05 07:17:01;;;;;;;8.13;3.22;;;;;;;19.49;94.45;101520.59;5059068;28;20064;-53
2022/08/05 07:19:51;;;;;;;9.65;4.10;;;;;;;19.53;94.03;101521.59;5064857;28;20045;-51
2022/08/05 07:22:39;;;;;;;9.70;3.83;;;;;;;19.54;94.31;101533.47;5051481;28;20074;-49
2022/08/05 07:25:08;;;;;;;11.15;3.67;;;;;;;19.55;93.44;101538.69;5066352;28;20132;-51
2022/08/05 07:27:56;;;;;;;11.40;3.72;;;;;;;19.58;93.39;101538.06;5061432;28;20052;-50
2022/08/05 07:30:35;;;;;;;11.57;3.72;;;;;;;19.65;92.22;101540.41;5072579;28;20048;-51
2022/08/05 07:33:10;;;;;;;12.18;3.80;;;;;;;19.71;91.33;101549.44;5034878;28;20045;-51
2022/08/05 07:35:44;;;;;;;13.65;3.75;;;;;;;19.61;89.85;101544.91;5053164;28;20040;-52
2022/08/05 07:38:32;;;;;;;13.20;4.45;;;;;;;19.46;90.54;101551.63;5073186;28;20094;-55
2022/08/05 07:41:15;;;;;;;12.43;3.35;;;;;;;19.44;91.75;101545.56;5054827;28;20047;-54
2022/08/05 07:44:04;;;;;;;9.45;3.92;;;;;;;19.47;89.98;101544.13;5071978;28;20048;-52
2022/08/05 07:46:41;;;;;;;11.88;3.40;;;;;;;19.51;89.15;101551.50;5072442;28;20063;-51
2022/08/05 07:49:15;;;;;;;9.32;3.10;;;;;;;19.46;88.28;101551.63;5072552;28;20150;-52
2022/08/05 07:51:44;;;;;;;12.60;3.72;;;;;;;19.50;87.78;101555.38;5053242;28;20513;-52
2022/08/05 07:54:27;;;;;;;10.38;3.30;;;;;;;19.57;86.79;101553.00;5055237;28;20063;-53
2022/08/05 07:56:58;;;;;;;11.25;3.53;;;;;;;19.56;85.26;101564.41;5072275;28;20060;-53
2022/08/05 07:59:44;;;;;;;;;;;;;;;19.56;83.98;101558.88;5073318;28;20059;-51
2022/08/05 08:02:15;;;;;;;9.65;3.30;;;;;;;19.62;82.47;101563.13;5072131;28;20278;-53
2022/08/05 08:04:47;;;;;;;7.00;2.97;;;;;;;19.63;82.26;101563.97;5054577;28;20029;-51
2022/08/05 08:07:17;;;;;;;9.13;2.60;;;;;;;19.70;82.38;101569.91;5072435;28;20457;-48
2022/08/05 08:09:50;;;;;;;8.07;3.03;;;;;;;19.77;81.34;101567.53;5072573;28;20094;-54
2022/08/05 08:12:20;;;;;;;7.57;2.40;;;;;;;19.87;80.75;101561.78;5054522;28;20120;-52
2022/08/05 08:15:08;;;;;;;7.40;2.50;;;;;;;19.95;78.75;101561.00;5052230;28;20062;-52
2022/08/05 08:17:43;;;;;;;;;;;;;;;20.06;79.08;101569.91;5071920;28;20064;-53
2022/08/05 08:20:23;;;;;;;9.63;2.42;;;;;;;20.13;78.48;101583.25;5072994;28;19927;-50
2022/08/05 08:23:11;;;;;;;5.75;2.15;;;;;;;20.17;77.94;101584.28;5058833;28;20048;-53
2022/08/05 08:25:59;;;;;;;6.82;2.60;;;;;;;20.16;76.25;101586.25;5073185;28;20430;-56
2022/08/05 08:28:32;;;;;;;5.50;2.03;;;;;;;20.07;76.16;101588.13;5055867;28;20048;-51
2022/08/05 08:31:08;;;;;;;4.90;1.77;;;;;;;20.14;77.19;101590.44;5071932;28;20028;-50
2022/08/05 08:33:44;;;;;;;6.75;2.00;;;;;;;20.19;76.40;101582.84;5072813;28;20099;-52
2022/08/05 08:36:18;;;;;;;7.72;2.10;;;;;;;20.25;76.69;101591.81;5049540;28;20033;-54
2022/08/05 08:39:06;;;;;;;8.25;2.70;;;;;;;20.23;75.32;101599.63;5072694;28;20044;-58
2022/08/05 08:41:43;;;;;;;4.70;2.00;;;;;;;20.23;75.42;101599.63;5053091;28;20120;-52
2022/08/05 08:44:20;;;;;;;5.50;2.03;;;;;;;20.29;75.66;101603.91;5055578;28;20044;-49
2022/08/05 08:47:08;;;;;;;4.35;1.95;;;;;;;20.37;76.32;101605.94;5038420;28;20037;-49
2022/08/05 08:49:57;;;;;;;4.03;1.90;;;;;;;20.43;75.98;101607.41;5062080;28;20044;-52
2022/08/05 08:52:55;;;;;;;6.43;2.40;;;;;;;20.47;76.17;101615.09;5061081;28;20048;-51
2022/08/05 08:55:23;;;;;;;5.22;1.98;;;;;;;20.47;75.15;101617.84;5074273;28;20043;-52
2022/08/05 08:58:11;;;;;;;7.00;2.33;;;;;;;20.51;74.93;101616.09;5052771;28;20072;-51
2022/08/05 09:00:41;;;;;;;5.65;1.85;;;;;;;20.54;74.59;101626.53;5075752;28;20098;-52
2022/08/05 09:03:10;;;;;;;7.78;1.98;;;;;;;20.60;73.90;101625.31;5075500;28;20054;-55
2022/08/05 09:05:42;;;;;;;4.70;2.22;;;;;;;20.60;73.71;101625.31;5056454;28;20041;-52
2022/08/05 09:08:30;;;;;;;4.65;2.05;;;;;;;20.66;75.75;101625.97;5074930;28;20033;-52
2022/08/05 09:10:58;;;;;;;6.63;2.20;;;;;;;20.75;75.06;101632.41;5075319;28;20040;-52
2022/08/05 09:13:26;;;;;;;6.88;2.30;;;;;;;20.81;74.60;101637.50;5075356;28;20090;-50
2022/08/05 09:15:58;;;;;;;6.57;2.03;;;;;;;20.88;73.68;101630.66;5056791;28;20112;-52
2022/08/05 09:18:26;;;;;;;5.57;2.30;;;;;;;20.94;73.66;101646.84;5075267;28;20498;-52
2022/08/05 09:20:53;;;;;;;6.05;2.30;;;;;;;20.89;73.61;101640.63;5075511;28;20051;-54
2022/08/05 09:23:22;;;;;;;8.82;2.47;;;;;;;20.83;71.59;101640.75;5075496;28;20452;-48
2022/08/05 09:26:08;;;;;;;8.70;2.17;;;;;;;20.80;72.13;101651.66;5056116;28;20037;-48
2022/08/05 09:28:37;;;;;;;4.40;1.88;;;;;;;20.70;72.77;101663.81;5057402;28;20052;-49
2022/08/05 09:31:09;;;;;;;6.13;2.00;;;;;;;20.64;72.75;101654.00;5057088;28;20119;-52
2022/08/05 09:34:02;;;;;;;5.55;1.90;;;;;;;20.54;72.01;101657.81;5074323;28;20118;-53
2022/08/05 09:36:51;;;;;;;5.55;2.20;;;;;;;20.46;73.32;101664.09;5073613;28;20051;-52
2022/08/05 09:39:23;;;;;;;5.82;1.83;;;;;;;20.42;73.98;101675.00;5071637;28;20043;-49
2022/08/05 09:42:14;;;;;;;7.90;2.25;;;;;;;20.36;74.14;101673.47;5059115;28;20041;-52
2022/08/05 09:44:55;;;;;;;6.53;2.20;;;;;;;20.31;72.41;101673.59;5074527;28;20036;-49
2022/08/05 09:47:43;;;;;;;7.80;1.92;;;;;;;20.29;71.34;101670.31;5074891;28;20044;-50
2022/08/05 09:50:34;;;;;;;6.78;2.10;;;;;;;20.35;72.57;101674.63;5074618;28;20064;-51
2022/08/05 09:53:10;;;;;;;6.43;2.40;;;;;;;20.45;70.93;101669.97;5056418;28;20487;-51
2022/08/05 09:56:00;;;;;;;6.30;2.35;;;;;;;20.53;70.79;101675.56;5063817;28;20037;-52
2022/08/05 09:58:39;;;;;;;3.88;1.63;;;;;;;20.62;70.08;101670.94;5058468;28;20086;-52
2022/08/05 10:01:12;;;;;;;5.72;2.53;;;;;;;20.71;68.52;101673.78;5074512;28;20041;-49
2022/08/05 10:04:02;;;;;;;4.75;1.67;;;;;;;20.77;66.78;101674.44;5071754;28;20123;-54
2022/08/05 10:06:30;;;;;;;7.07;2.45;;;;;;;20.89;66.46;101676.63;5056556;28;20768;-50
2022/08/05 10:09:10;;;;;;;8.95;2.92;;;;;;;20.98;63.98;101669.19;5074604;28;20045;-56
2022/08/05 10:12:08;;;;;;;7.57;2.03;;;;;;;21.05;61.63;101680.63;5074497;28;20395;-51
2022/08/05 10:15:22;;;;;;;5.25;2.22;;;;;;;21.05;59.68;101677.88;5072882;28;20437;-59
2022/08/05 10:18:11;;;;;;;14.32;5.40;;;;;;;21.03;58.97;101685.69;5070826;28;20506;-53
2022/08/05 10:20:45;;;;;;;4.97;2.22;;;;;;;21.06;59.25;101682.25;5073805;28;20052;-54
2022/08/05 10:23:20;;;;;;;25.83;9.73;;;;;;;21.10;59.43;101672.19;5072599;28;20044;-53
2022/08/05 10:26:11;;;;;;;11.18;3.85;;;;;;;21.15;59.51;101682.31;5055749;28;20086;-54
2022/08/05 10:28:42;;;;;;;7.10;2.50;;;;;;;21.16;58.90;101686.72;5032643;28;20163;-55
2022/08/05 10:31:13;;;;;;;5.40;1.73;;;;;;;21.12;55.84;101686.53;5033419;28;20069;-52
2022/08/05 10:34:02;;;;;;;5.13;1.60;;;;;;;21.12;55.04;101703.19;5034288;28;20496;-53
2022/08/05 10:36:30;;;;;;;5.38;1.80;;;;;;;21.12;53.91;101692.09;5032476;28;20107;-54
2022/08/05 10:39:05;;;;;;;6.53;1.95;;;;;;;21.15;54.05;101702.53;5033540;28;20056;-52
2022/08/05 10:42:09;;;;;;;2.28;1.13;;;;;;;21.24;54.18;101695.06;5031583;28;20128;-52
2022/08/05 10:44:38;;;;;;;2.65;1.35;;;;;;;21.33;51.65;101699.84;5025810;28;20041;-53
2022/08/05 10:47:16;;;;;;;2.29;1.06;;;;;;;21.32;49.19;101706.53;4955892;28;10000642;-51
2022/08/05 10:50:10;;;;;;;2.35;1.08;;;;;;;21.32;49.47;101712.06;4679485;28;10001591;-55
2022/08/05 10:52:58;;;;;;;5.22;1.40;;;;;;;21.33;49.20;101710.91;5029814;28;20108;-56
2022/08/05 10:55:27;;;;;;;4.97;1.23;;;;;;;21.30;48.24;101709.59;5029277;28;20728;-54
2022/08/05 10:58:08;;;;;;;4.28;1.17;;;;;;;21.30;49.30;101714.34;5029217;28;20415;-54
2022/08/05 11:00:38;;;;;;;3.92;1.20;;;;;;;21.33;48.12;101719.22;5030209;28;20520;-53
2022/08/05 11:03:11;;;;;;;4.18;1.02;;;;;;;21.35;47.51;101720.56;5028220;28;20044;-53
2022/08/05 11:06:07;;;;;;;2.47;1.27;;;;;;;21.39;48.85;101715.19;5023470;28;20045;-52
2022/08/05 11:09:12;;;;;;;3.47;1.40;;;;;;;21.46;48.25;101724.72;5025596;28;20068;-53
2022/08/05 11:11:45;;;;;;;4.63;1.00;;;;;;;21.52;49.07;101721.78;5028885;28;20095;-55
2022/08/05 11:14:37;;;;;;;2.38;1.20;;;;;;;21.53;49.89;101720.66;5027859;28;20803;-53
2022/08/05 11:17:34;;;;;;;1.85;1.02;;;;;;;21.57;48.92;101728.00;5028726;28;20049;-55
2022/08/05 11:20:41;;;;;;;1.52;0.90;;;;;;;21.60;48.92;101729.31;5026973;28;20045;-53
2022/08/05 11:23:27;;;;;;;5.05;1.30;;;;;;;21.56;48.68;101745.00;5029780;28;20511;-52
2022/08/05 11:26:20;;;;;;;3.28;1.20;;;;;;;21.47;49.19;101747.72;5030340;28;20042;-51
2022/08/05 11:29:02;;;;;;;2.83;1.33;;;;;;;21.46;48.92;101751.63;5066496;28;20740;-50
2022/08/05 11:31:44;;;;;;;2.22;1.30;;;;;;;21.48;49.75;101746.59;5052980;28;20503;-55
2022/08/05 11:34:53;;;;;;;3.67;1.60;;;;;;;21.54;48.29;101753.63;5065994;28;20036;-54
2022/08/05 11:37:53;;;;;;;4.38;1.65;;;;;;;21.48;47.63;101760.47;5040864;28;20057;-58
2022/08/05 11:41:00;;;;;;;4.57;1.30;;;;;;;21.46;47.87;101752.44;5067893;28;20048;-59
2022/08/05 11:44:11;;;;;;;6.35;1.65;;;;;;;21.47;47.86;101756.03;5057264;28;20048;-59
2022/08/05 11:46:52;;;;;;;4.53;1.40;;;;;;;21.57;48.50;101752.97;5065799;28;20127;-59
2022/08/05 11:49:39;;;;;;;4.88;1.20;;;;;;;21.70;46.99;101754.81;5057398;28;20510;-58
2022/08/05 11:52:09;;;;;;;3.13;1.27;;;;;;;21.82;46.19;101765.31;5072343;28;20035;-58
2022/08/05 11:54:39;;;;;;;2.70;1.13;;;;;;;21.91;44.14;101757.00;5071292;28;20537;-58
2022/08/05 11:57:08;;;;;;;3.75;1.30;;;;;;;21.94;43.98;101756.38;5052586;28;20391;-58
2022/08/05 11:59:53;;;;;;;4.03;1.27;;;;;;;21.85;42.97;101763.84;5072090;28;20039;-56
2022/08/05 12:02:26;;;;;;;4.05;1.30;;;;;;;21.72;43.22;101792.50;5038271;28;20068;-61
2022/08/05 12:05:02;;;;;;;4.63;1.40;;;;;;;21.59;43.20;101786.75;5071085;28;20040;-57
2022/08/05 12:07:47;;;;;;;3.22;1.27;;;;;;;21.54;43.80;101798.00;5066489;28;20040;-59
2022/08/05 12:10:35;;;;;;;2.45;1.10;;;;;;;21.53;43.76;101792.75;5072288;28;20063;-56
2022/08/05 12:13:15;;;;;;;6.70;1.17;;;;;;;21.60;42.12;101804.19;5055546;28;20075;-60
2022/08/05 12:16:06;;;;;;;4.65;1.45;;;;;;;21.55;42.11;101807.97;5054196;28;20044;-59